createdAt,value
2022-10-22T00:01:45.667Z,8.20
2022-10-22T00:06:47.540Z,8.30
2022-10-22T00:11:49.447Z,8.40
2022-10-22T00:16:51.267Z,8.50
2022-10-22T00:21:53.521Z,8.30
2022-10-22T00:26:55.368Z,7.80
2022-10-22T00:31:57.210Z,7.70
2022-10-22T00:36:59.488Z,7.90
2022-10-22T00:42:01.634Z,8.00
2022-10-22T00:47:03.619Z,8.00
2022-10-22T00:52:06.462Z,8.20
2022-10-22T00:57:08.524Z,7.90
2022-10-22T01:02:10.667Z,8.10
2022-10-22T01:07:18.303Z,8.20
2022-10-22T01:12:45.226Z,8.10
2022-10-22T01:18:02.896Z,8.10
2022-10-22T01:23:22.701Z,7.50
2022-10-22T01:28:58.342Z,7.80
2022-10-22T01:34:01.268Z,7.70
2022-10-22T01:39:03.961Z,7.40
2022-10-22T01:44:05.779Z,7.20
2022-10-22T01:49:25.519Z,7.10
2022-10-22T01:54:38.449Z,7.10
2022-10-22T01:59:58.916Z,6.90
2022-10-22T02:05:23.819Z,6.90
2022-10-22T02:10:26.307Z,6.60
2022-10-22T02:15:29.613Z,6.50
2022-10-22T02:20:35.707Z,6.60
2022-10-22T02:25:42.086Z,6.50
2022-10-22T02:30:48.412Z,6.20
2022-10-22T02:35:52.316Z,6.20
2022-10-22T02:40:54.156Z,6.30
2022-10-22T02:45:56.250Z,6.10
2022-10-22T02:50:58.068Z,6.00
2022-10-22T02:56:00.172Z,6.10
2022-10-22T03:01:02.056Z,5.80
2022-10-22T03:06:04.275Z,5.90
2022-10-22T03:11:06.235Z,5.90
2022-10-22T03:16:08.323Z,5.80
2022-10-22T03:21:28.160Z,5.70
2022-10-22T03:26:30.021Z,5.50
2022-10-22T03:31:31.893Z,5.50
2022-10-22T03:36:34.213Z,5.50
2022-10-22T03:41:36.807Z,5.20
2022-10-22T03:46:38.806Z,5.20
2022-10-22T03:51:40.892Z,5.30
2022-10-22T03:56:42.750Z,5.30
2022-10-22T04:01:44.575Z,5.30
2022-10-22T04:06:46.406Z,4.90
2022-10-22T04:11:48.274Z,4.70
2022-10-22T04:16:50.196Z,4.80
2022-10-22T04:21:52.108Z,4.90
2022-10-22T04:26:54.856Z,5.00
2022-10-22T04:31:56.663Z,4.90
2022-10-22T04:36:58.547Z,4.80
2022-10-22T04:42:00.460Z,5.00
2022-10-22T04:47:02.292Z,5.10
2022-10-22T04:52:04.272Z,5.10
2022-10-22T04:57:06.106Z,5.10
2022-10-22T05:02:08.056Z,5.20
2022-10-22T05:07:09.960Z,4.90
2022-10-22T05:12:11.818Z,4.80
2022-10-22T05:17:13.695Z,4.70
2022-10-22T05:22:15.592Z,4.60
2022-10-22T05:32:19.151Z,4.60
2022-10-22T05:37:21.012Z,4.70
2022-10-22T05:42:25.925Z,5.00
2022-10-22T05:47:30.136Z,5.20
2022-10-22T05:52:31.941Z,5.10
2022-10-22T05:57:33.784Z,4.90
2022-10-22T06:02:35.625Z,4.80
2022-10-22T06:07:37.489Z,4.70
2022-10-22T06:12:39.563Z,4.90
2022-10-22T06:17:41.695Z,5.20
2022-10-22T06:22:43.765Z,5.40
2022-10-22T06:27:51.105Z,5.60
2022-10-22T06:32:52.908Z,6.00
2022-10-22T06:37:54.716Z,6.50
2022-10-22T06:42:56.539Z,6.80
2022-10-22T06:47:58.376Z,7.20
2022-10-22T06:53:00.234Z,7.60
2022-10-22T06:58:02.125Z,8.10
2022-10-22T07:03:04.007Z,8.60
2022-10-22T07:08:06.000Z,9.40
2022-10-22T07:13:07.847Z,10.00
2022-10-22T07:18:09.632Z,10.20
2022-10-22T07:23:11.455Z,10.50
2022-10-22T07:28:13.715Z,10.50
2022-10-22T07:33:15.644Z,10.70
2022-10-22T07:38:17.595Z,10.90
2022-10-22T07:43:19.411Z,11.10
2022-10-22T07:48:21.603Z,11.00
2022-10-22T07:53:23.403Z,10.80
2022-10-22T07:58:25.833Z,10.80
2022-10-22T08:03:28.298Z,11.00
2022-10-22T08:08:30.935Z,11.20
2022-10-22T08:13:33.200Z,11.40
2022-10-22T08:18:35.141Z,11.50
2022-10-22T08:23:37.017Z,11.60
2022-10-22T08:28:38.966Z,11.70
2022-10-22T08:33:41.712Z,12.00
2022-10-22T08:38:43.622Z,12.00
2022-10-22T08:44:17.300Z,12.10
2022-10-22T08:49:26.221Z,12.20
2022-10-22T08:54:48.385Z,12.30
2022-10-22T09:00:13.541Z,12.30
2022-10-22T09:05:35.419Z,12.10
2022-10-22T09:10:40.686Z,12.10
2022-10-22T09:15:44.992Z,12.00
2022-10-22T09:20:54.852Z,12.20
2022-10-22T09:25:57.973Z,12.50
2022-10-22T09:30:59.879Z,12.80
2022-10-22T09:36:05.629Z,13.00
2022-10-22T09:41:09.302Z,12.70
2022-10-22T09:46:20.003Z,12.50
2022-10-22T09:51:24.859Z,12.40
2022-10-22T09:56:28.248Z,12.30
2022-10-22T10:01:35.481Z,12.20
2022-10-22T10:06:40.397Z,12.20
2022-10-22T10:11:54.006Z,12.20
2022-10-22T10:17:16.101Z,12.30
2022-10-22T10:22:40.993Z,12.30
2022-10-22T10:28:01.462Z,12.40
2022-10-22T10:33:26.611Z,12.40
2022-10-22T10:38:40.660Z,12.30
2022-10-22T10:44:07.029Z,12.20
2022-10-22T10:49:16.776Z,12.20
2022-10-22T10:54:35.495Z,12.10
2022-10-22T11:00:17.859Z,12.00
2022-10-22T11:05:34.819Z,11.90
2022-10-22T11:10:57.538Z,11.90
2022-10-22T11:16:28.480Z,11.90
2022-10-22T11:22:11.832Z,11.80
2022-10-22T11:27:13.710Z,11.80
2022-10-22T11:32:19.809Z,11.80
2022-10-22T11:37:24.546Z,11.60
2022-10-22T11:42:37.358Z,11.60
2022-10-22T11:48:15.902Z,11.70
2022-10-22T11:53:39.138Z,11.60
2022-10-22T11:58:43.970Z,11.60
2022-10-22T12:03:59.337Z,11.60
2022-10-22T12:09:07.227Z,11.60
2022-10-22T12:14:32.443Z,11.60
2022-10-22T12:19:43.217Z,11.70
2022-10-22T12:24:50.684Z,11.70
2022-10-22T12:30:00.074Z,11.70
2022-10-22T12:35:07.114Z,11.80
2022-10-22T12:40:21.456Z,11.80
2022-10-22T12:45:26.689Z,11.60
2022-10-22T12:50:43.385Z,11.70
2022-10-22T12:55:51.609Z,12.00
2022-10-22T13:01:00.805Z,12.10
2022-10-22T13:06:21.617Z,12.10
2022-10-22T13:11:23.477Z,12.10
2022-10-22T13:16:27.774Z,12.10
2022-10-22T13:21:39.301Z,12.10
2022-10-22T13:26:41.133Z,12.00
2022-10-22T13:31:51.897Z,12.00
2022-10-22T13:36:53.743Z,11.90
2022-10-22T13:41:55.660Z,11.80
2022-10-22T13:46:57.759Z,11.80
2022-10-22T13:52:01.052Z,11.70
2022-10-22T13:57:02.887Z,11.70
2022-10-22T14:02:11.593Z,11.70
2022-10-22T14:07:17.287Z,11.70
2022-10-22T14:12:19.154Z,11.70
2022-10-22T14:17:21.004Z,11.70
2022-10-22T14:22:26.372Z,11.60
2022-10-22T14:27:28.204Z,11.50
2022-10-22T14:32:30.106Z,11.40
2022-10-22T14:37:31.981Z,11.30
2022-10-22T14:42:40.629Z,11.30
2022-10-22T14:47:42.676Z,11.30
2022-10-22T14:52:44.901Z,11.20
2022-10-22T14:57:46.928Z,11.20
2022-10-22T15:02:48.877Z,11.20
2022-10-22T15:07:50.952Z,11.20
2022-10-22T15:12:52.872Z,11.10
2022-10-22T15:17:54.741Z,11.10
2022-10-22T15:22:56.679Z,11.10
2022-10-22T15:28:03.345Z,11.00
2022-10-22T15:33:11.117Z,11.00
2022-10-22T15:38:12.964Z,10.90
2022-10-22T15:43:14.809Z,10.90
2022-10-22T15:48:16.632Z,11.00
2022-10-22T15:53:18.627Z,11.00
2022-10-22T15:58:20.524Z,11.00
2022-10-22T16:03:22.402Z,11.10
2022-10-22T16:08:24.697Z,11.10
2022-10-22T16:13:26.842Z,11.10
2022-10-22T16:18:28.667Z,11.20
2022-10-22T16:23:30.559Z,11.20
2022-10-22T16:28:35.348Z,11.20
2022-10-22T16:33:42.943Z,11.30
2022-10-22T16:38:48.969Z,11.30
2022-10-22T16:43:54.957Z,11.30
2022-10-22T16:48:56.896Z,11.30
2022-10-22T16:53:58.729Z,11.30
2022-10-22T16:59:00.544Z,11.30
2022-10-22T17:04:02.762Z,11.30
2022-10-22T17:09:05.449Z,11.30
2022-10-22T17:14:07.399Z,11.30
2022-10-22T17:19:15.673Z,11.30
2022-10-22T17:24:18.584Z,11.30
2022-10-22T17:29:21.970Z,11.30
2022-10-22T17:34:23.781Z,11.20
2022-10-22T17:39:26.701Z,11.20
2022-10-22T17:44:29.000Z,11.20
2022-10-22T17:49:30.836Z,11.20
2022-10-22T17:54:33.444Z,11.10
2022-10-22T17:59:36.055Z,11.10
2022-10-22T18:04:37.917Z,11.10
2022-10-22T18:09:40.240Z,11.10
2022-10-22T18:14:42.132Z,11.10
2022-10-22T18:19:43.972Z,11.00
2022-10-22T18:24:45.979Z,11.00
2022-10-22T18:29:50.037Z,11.00
2022-10-22T18:34:51.909Z,11.00
2022-10-22T18:39:53.737Z,10.90
2022-10-22T18:44:55.545Z,10.90
2022-10-22T18:49:57.406Z,10.90
2022-10-22T18:54:59.340Z,10.80
2022-10-22T19:00:01.555Z,10.80
2022-10-22T19:05:03.449Z,10.80
2022-10-22T19:10:05.761Z,10.80
2022-10-22T19:15:08.007Z,10.80
2022-10-22T19:20:10.409Z,10.80
2022-10-22T19:25:12.314Z,10.70
2022-10-22T19:30:14.460Z,10.70
2022-10-22T19:35:16.424Z,10.70
2022-10-22T19:40:18.588Z,10.70
2022-10-22T19:45:20.464Z,10.70
2022-10-22T19:50:22.761Z,10.70
2022-10-22T19:55:24.630Z,10.80
2022-10-22T20:00:28.371Z,10.70
2022-10-22T20:05:30.223Z,10.80
2022-10-22T20:10:32.339Z,10.80
2022-10-22T20:15:35.164Z,10.90
2022-10-22T20:20:40.175Z,10.90
2022-10-22T20:25:46.857Z,11.00
2022-10-22T20:30:48.693Z,10.90
2022-10-22T20:36:01.371Z,11.00
2022-10-22T20:41:06.340Z,11.00
2022-10-22T20:46:08.157Z,11.00
2022-10-22T20:51:10.201Z,11.10
2022-10-22T20:56:13.035Z,11.00
2022-10-22T21:01:23.905Z,11.00
2022-10-22T21:06:26.088Z,11.00
2022-10-22T21:11:27.963Z,11.10
2022-10-22T21:16:29.948Z,11.10
2022-10-22T21:21:31.726Z,11.10
2022-10-22T21:26:38.346Z,11.10
2022-10-22T21:31:40.591Z,11.10
2022-10-22T21:36:42.879Z,11.10
2022-10-22T21:41:44.777Z,11.10
2022-10-22T21:46:46.590Z,11.10
2022-10-22T21:51:48.525Z,11.10
2022-10-22T21:56:50.441Z,11.00
2022-10-22T22:01:52.252Z,11.10
2022-10-22T22:06:54.144Z,11.00
2022-10-22T22:11:56.480Z,11.10
2022-10-22T22:16:58.382Z,11.10
2022-10-22T22:22:00.219Z,11.10
2022-10-22T22:27:02.012Z,11.10
2022-10-22T22:32:03.990Z,11.10
2022-10-22T22:37:06.791Z,11.10
2022-10-22T22:42:08.634Z,11.10
2022-10-22T22:47:10.740Z,11.20
2022-10-22T22:52:12.580Z,11.20
2022-10-22T22:57:15.276Z,11.20
2022-10-22T23:02:17.121Z,11.30
2022-10-22T23:07:18.969Z,11.30
2022-10-22T23:12:20.775Z,11.30
2022-10-22T23:17:22.750Z,11.40
2022-10-22T23:22:24.700Z,11.40
2022-10-22T23:27:26.572Z,11.40
2022-10-22T23:32:28.452Z,11.40
2022-10-22T23:37:30.297Z,11.50
2022-10-22T23:42:32.130Z,11.50
2022-10-22T23:47:33.975Z,11.50
2022-10-22T23:52:35.902Z,11.50
2022-10-22T23:57:37.712Z,11.50
